sensor_id;sensor_type;location;lat;lon;timestamp;P1;durP1;ratioP1;P2;durP2;ratioP2
68140;SDS011;54941;52.220;104.306;2023-04-24T00:00:37;15.40;;;6.70;;
68140;SDS011;54941;52.220;104.306;2023-04-24T00:03:03;14.55;;;6.20;;
68140;SDS011;54941;52.220;104.306;2023-04-24T00:05:29;16.90;;;7.10;;
68140;SDS011;54941;52.220;104.306;2023-04-24T00:07:56;8.10;;;5.70;;
68140;SDS011;54941;52.220;104.306;2023-04-24T00:10:22;13.25;;;6.00;;
68140;SDS011;54941;52.220;104.306;2023-04-24T00:12:50;9.02;;;6.10;;
68140;SDS011;54941;52.220;104.306;2023-04-24T00:15:16;13.32;;;6.75;;
68140;SDS011;54941;52.220;104.306;2023-04-24T00:17:43;12.40;;;6.95;;
68140;SDS011;54941;52.220;104.306;2023-04-24T00:20:09;10.32;;;6.00;;
68140;SDS011;54941;52.220;104.306;2023-04-24T00:22:36;12.80;;;6.45;;
68140;SDS011;54941;52.220;104.306;2023-04-24T00:25:02;10.50;;;6.13;;
68140;SDS011;54941;52.220;104.306;2023-04-24T00:27:29;11.00;;;5.93;;
68140;SDS011;54941;52.220;104.306;2023-04-24T00:29:57;13.43;;;7.00;;
68140;SDS011;54941;52.220;104.306;2023-04-24T00:32:24;13.23;;;6.95;;
68140;SDS011;54941;52.220;104.306;2023-04-24T00:34:51;11.90;;;8.48;;
68140;SDS011;54941;52.220;104.306;2023-04-24T00:37:17;14.38;;;8.57;;
68140;SDS011;54941;52.220;104.306;2023-04-24T00:39:44;14.75;;;9.15;;
68140;SDS011;54941;52.220;104.306;2023-04-24T00:42:11;16.02;;;9.80;;
68140;SDS011;54941;52.220;104.306;2023-04-24T00:44:37;16.30;;;10.50;;
68140;SDS011;54941;52.220;104.306;2023-04-24T00:47:06;15.35;;;8.75;;
68140;SDS011;54941;52.220;104.306;2023-04-24T00:49:33;15.25;;;9.95;;
68140;SDS011;54941;52.220;104.306;2023-04-24T00:51:59;15.60;;;10.05;;
68140;SDS011;54941;52.220;104.306;2023-04-24T00:54:25;19.17;;;9.70;;
68140;SDS011;54941;52.220;104.306;2023-04-24T00:56:52;17.58;;;9.98;;
68140;SDS011;54941;52.220;104.306;2023-04-24T00:59:18;18.50;;;10.50;;
68140;SDS011;54941;52.220;104.306;2023-04-24T01:01:45;16.15;;;9.55;;
68140;SDS011;54941;52.220;104.306;2023-04-24T01:04:13;19.17;;;9.77;;
68140;SDS011;54941;52.220;104.306;2023-04-24T01:06:42;17.60;;;10.55;;
68140;SDS011;54941;52.220;104.306;2023-04-24T01:09:09;16.92;;;10.10;;
68140;SDS011;54941;52.220;104.306;2023-04-24T01:11:37;16.02;;;11.05;;
68140;SDS011;54941;52.220;104.306;2023-04-24T01:14:05;16.45;;;10.25;;
68140;SDS011;54941;52.220;104.306;2023-04-24T01:16:32;18.70;;;11.60;;
68140;SDS011;54941;52.220;104.306;2023-04-24T01:18:58;16.27;;;10.68;;
68140;SDS011;54941;52.220;104.306;2023-04-24T01:21:27;15.45;;;10.40;;
68140;SDS011;54941;52.220;104.306;2023-04-24T01:23:57;15.95;;;9.15;;
68140;SDS011;54941;52.220;104.306;2023-04-24T01:26:23;15.77;;;9.10;;
68140;SDS011;54941;52.220;104.306;2023-04-24T01:28:49;14.65;;;9.45;;
68140;SDS011;54941;52.220;104.306;2023-04-24T01:31:16;12.80;;;8.00;;
68140;SDS011;54941;52.220;104.306;2023-04-24T01:33:42;16.35;;;10.00;;
68140;SDS011;54941;52.220;104.306;2023-04-24T01:36:09;12.07;;;8.82;;
68140;SDS011;54941;52.220;104.306;2023-04-24T01:38:36;16.55;;;9.35;;
68140;SDS011;54941;52.220;104.306;2023-04-24T01:41:04;19.13;;;11.23;;
68140;SDS011;54941;52.220;104.306;2023-04-24T01:43:31;20.17;;;9.68;;
68140;SDS011;54941;52.220;104.306;2023-04-24T01:45:58;17.92;;;9.60;;
68140;SDS011;54941;52.220;104.306;2023-04-24T01:48:24;13.32;;;9.20;;
68140;SDS011;54941;52.220;104.306;2023-04-24T01:50:51;10.60;;;7.05;;
68140;SDS011;54941;52.220;104.306;2023-04-24T01:53:17;12.77;;;7.15;;
68140;SDS011;54941;52.220;104.306;2023-04-24T01:55:44;7.97;;;6.00;;
68140;SDS011;54941;52.220;104.306;2023-04-24T01:58:11;7.18;;;5.47;;
68140;SDS011;54941;52.220;104.306;2023-04-24T02:00:38;7.75;;;5.47;;
68140;SDS011;54941;52.220;104.306;2023-04-24T02:03:04;9.88;;;6.25;;
68140;SDS011;54941;52.220;104.306;2023-04-24T02:05:30;7.78;;;6.00;;
68140;SDS011;54941;52.220;104.306;2023-04-24T02:07:57;7.28;;;5.18;;
68140;SDS011;54941;52.220;104.306;2023-04-24T02:10:23;7.63;;;5.25;;
68140;SDS011;54941;52.220;104.306;2023-04-24T02:12:49;7.00;;;4.72;;
68140;SDS011;54941;52.220;104.306;2023-04-24T02:15:18;5.53;;;4.40;;
68140;SDS011;54941;52.220;104.306;2023-04-24T02:17:44;8.05;;;5.20;;
68140;SDS011;54941;52.220;104.306;2023-04-24T02:20:10;6.30;;;4.07;;
68140;SDS011;54941;52.220;104.306;2023-04-24T02:22:37;6.57;;;4.57;;
68140;SDS011;54941;52.220;104.306;2023-04-24T02:25:03;5.68;;;4.50;;
68140;SDS011;54941;52.220;104.306;2023-04-24T02:27:33;7.70;;;5.43;;
68140;SDS011;54941;52.220;104.306;2023-04-24T02:30:00;8.32;;;5.07;;
68140;SDS011;54941;52.220;104.306;2023-04-24T02:32:32;6.38;;;5.22;;
68140;SDS011;54941;52.220;104.306;2023-04-24T02:34:58;7.38;;;5.25;;
68140;SDS011;54941;52.220;104.306;2023-04-24T02:37:25;8.90;;;5.32;;
68140;SDS011;54941;52.220;104.306;2023-04-24T02:39:51;6.72;;;4.78;;
68140;SDS011;54941;52.220;104.306;2023-04-24T02:42:17;7.55;;;4.95;;
68140;SDS011;54941;52.220;104.306;2023-04-24T02:44:44;5.43;;;4.30;;
68140;SDS011;54941;52.220;104.306;2023-04-24T02:47:10;6.32;;;4.22;;
68140;SDS011;54941;52.220;104.306;2023-04-24T02:49:38;7.28;;;4.43;;
68140;SDS011;54941;52.220;104.306;2023-04-24T02:52:04;6.72;;;4.20;;
68140;SDS011;54941;52.220;104.306;2023-04-24T02:54:30;7.40;;;4.53;;
68140;SDS011;54941;52.220;104.306;2023-04-24T02:56:57;6.97;;;5.35;;
68140;SDS011;54941;52.220;104.306;2023-04-24T02:59:23;6.45;;;4.63;;
68140;SDS011;54941;52.220;104.306;2023-04-24T03:01:49;5.82;;;4.68;;
68140;SDS011;54941;52.220;104.306;2023-04-24T03:04:16;5.63;;;4.45;;
68140;SDS011;54941;52.220;104.306;2023-04-24T03:06:45;7.55;;;4.68;;
68140;SDS011;54941;52.220;104.306;2023-04-24T03:11:37;6.13;;;4.20;;
68140;SDS011;54941;52.220;104.306;2023-04-24T03:14:05;6.63;;;4.25;;
68140;SDS011;54941;52.220;104.306;2023-04-24T03:16:31;5.65;;;4.10;;
68140;SDS011;54941;52.220;104.306;2023-04-24T03:18:57;5.88;;;4.22;;
68140;SDS011;54941;52.220;104.306;2023-04-24T03:21:24;5.95;;;4.65;;
68140;SDS011;54941;52.220;104.306;2023-04-24T03:23:52;8.55;;;5.50;;
68140;SDS011;54941;52.220;104.306;2023-04-24T03:26:18;6.28;;;4.35;;
68140;SDS011;54941;52.220;104.306;2023-04-24T03:28:44;5.18;;;3.80;;
68140;SDS011;54941;52.220;104.306;2023-04-24T03:31:10;5.88;;;4.57;;
68140;SDS011;54941;52.220;104.306;2023-04-24T03:33:37;5.72;;;4.30;;
68140;SDS011;54941;52.220;104.306;2023-04-24T03:36:03;7.80;;;3.58;;
68140;SDS011;54941;52.220;104.306;2023-04-24T03:38:30;5.68;;;4.40;;
68140;SDS011;54941;52.220;104.306;2023-04-24T03:40:58;7.53;;;3.92;;
68140;SDS011;54941;52.220;104.306;2023-04-24T03:43:24;6.85;;;4.38;;
68140;SDS011;54941;52.220;104.306;2023-04-24T03:45:50;5.35;;;3.78;;
68140;SDS011;54941;52.220;104.306;2023-04-24T03:48:16;5.32;;;3.55;;
68140;SDS011;54941;52.220;104.306;2023-04-24T03:50:43;7.45;;;3.60;;
68140;SDS011;54941;52.220;104.306;2023-04-24T03:53:09;4.70;;;3.80;;
68140;SDS011;54941;52.220;104.306;2023-04-24T03:55:36;8.57;;;5.18;;
68140;SDS011;54941;52.220;104.306;2023-04-24T03:58:03;7.72;;;5.15;;
68140;SDS011;54941;52.220;104.306;2023-04-24T04:00:30;4.38;;;3.10;;
68140;SDS011;54941;52.220;104.306;2023-04-24T04:02:56;6.60;;;4.28;;
68140;SDS011;54941;52.220;104.306;2023-04-24T04:05:22;8.43;;;4.10;;
68140;SDS011;54941;52.220;104.306;2023-04-24T04:07:49;5.03;;;3.30;;
68140;SDS011;54941;52.220;104.306;2023-04-24T04:10:15;5.60;;;3.63;;
68140;SDS011;54941;52.220;104.306;2023-04-24T04:12:41;5.65;;;3.90;;
68140;SDS011;54941;52.220;104.306;2023-04-24T04:15:09;5.70;;;3.85;;
68140;SDS011;54941;52.220;104.306;2023-04-24T04:17:36;8.95;;;3.85;;
68140;SDS011;54941;52.220;104.306;2023-04-24T04:20:02;5.13;;;3.60;;
68140;SDS011;54941;52.220;104.306;2023-04-24T04:22:30;5.03;;;3.65;;
68140;SDS011;54941;52.220;104.306;2023-04-24T04:24:56;5.57;;;4.20;;
68140;SDS011;54941;52.220;104.306;2023-04-24T04:27:22;6.65;;;4.13;;
68140;SDS011;54941;52.220;104.306;2023-04-24T04:29:48;5.53;;;3.88;;
68140;SDS011;54941;52.220;104.306;2023-04-24T04:32:16;5.60;;;4.13;;
68140;SDS011;54941;52.220;104.306;2023-04-24T04:34:43;5.85;;;3.90;;
68140;SDS011;54941;52.220;104.306;2023-04-24T04:37:09;5.45;;;3.92;;
68140;SDS011;54941;52.220;104.306;2023-04-24T04:39:35;7.93;;;4.38;;
68140;SDS011;54941;52.220;104.306;2023-04-24T04:42:02;5.45;;;3.70;;
68140;SDS011;54941;52.220;104.306;2023-04-24T04:44:28;7.15;;;4.20;;
68140;SDS011;54941;52.220;104.306;2023-04-24T04:46:54;5.32;;;4.38;;
68140;SDS011;54941;52.220;104.306;2023-04-24T04:49:22;4.75;;;3.65;;
68140;SDS011;54941;52.220;104.306;2023-04-24T04:51:48;8.07;;;4.20;;
68140;SDS011;54941;52.220;104.306;2023-04-24T04:54:15;6.10;;;4.10;;
68140;SDS011;54941;52.220;104.306;2023-04-24T04:56:41;8.18;;;4.05;;
68140;SDS011;54941;52.220;104.306;2023-04-24T04:59:08;5.25;;;3.08;;
68140;SDS011;54941;52.220;104.306;2023-04-24T05:01:34;4.68;;;3.60;;
68140;SDS011;54941;52.220;104.306;2023-04-24T05:04:00;4.35;;;3.30;;
68140;SDS011;54941;52.220;104.306;2023-04-24T05:06:28;4.82;;;3.60;;
68140;SDS011;54941;52.220;104.306;2023-04-24T05:08:54;4.68;;;3.72;;
68140;SDS011;54941;52.220;104.306;2023-04-24T05:11:20;5.35;;;4.25;;
68140;SDS011;54941;52.220;104.306;2023-04-24T05:13:47;4.75;;;3.60;;
68140;SDS011;54941;52.220;104.306;2023-04-24T05:16:13;5.93;;;3.83;;
68140;SDS011;54941;52.220;104.306;2023-04-24T05:18:39;5.78;;;3.90;;
68140;SDS011;54941;52.220;104.306;2023-04-24T05:21:06;4.50;;;3.72;;
68140;SDS011;54941;52.220;104.306;2023-04-24T05:23:34;4.82;;;3.13;;
68140;SDS011;54941;52.220;104.306;2023-04-24T05:26:00;5.22;;;3.35;;
68140;SDS011;54941;52.220;104.306;2023-04-24T05:28:29;4.93;;;3.03;;
68140;SDS011;54941;52.220;104.306;2023-04-24T05:31:04;6.80;;;4.10;;
68140;SDS011;54941;52.220;104.306;2023-04-24T05:33:30;5.00;;;3.63;;
68140;SDS011;54941;52.220;104.306;2023-04-24T05:35:56;6.57;;;3.72;;
68140;SDS011;54941;52.220;104.306;2023-04-24T05:38:23;5.85;;;3.35;;
68140;SDS011;54941;52.220;104.306;2023-04-24T05:40:50;4.15;;;2.90;;
68140;SDS011;54941;52.220;104.306;2023-04-24T05:43:17;6.53;;;3.25;;
68140;SDS011;54941;52.220;104.306;2023-04-24T05:45:43;6.90;;;4.55;;
68140;SDS011;54941;52.220;104.306;2023-04-24T05:48:09;5.13;;;3.40;;
68140;SDS011;54941;52.220;104.306;2023-04-24T05:50:36;5.38;;;3.67;;
68140;SDS011;54941;52.220;104.306;2023-04-24T05:53:02;5.82;;;3.30;;
68140;SDS011;54941;52.220;104.306;2023-04-24T05:55:30;5.80;;;3.50;;
68140;SDS011;54941;52.220;104.306;2023-04-24T05:57:58;4.50;;;3.08;;
68140;SDS011;54941;52.220;104.306;2023-04-24T06:00:24;4.95;;;3.08;;
68140;SDS011;54941;52.220;104.306;2023-04-24T06:02:51;4.38;;;3.08;;
68140;SDS011;54941;52.220;104.306;2023-04-24T06:05:17;4.32;;;3.25;;
68140;SDS011;54941;52.220;104.306;2023-04-24T06:07:44;4.47;;;3.40;;
68140;SDS011;54941;52.220;104.306;2023-04-24T06:10:10;4.32;;;3.38;;
68140;SDS011;54941;52.220;104.306;2023-04-24T06:12:36;4.75;;;3.40;;
68140;SDS011;54941;52.220;104.306;2023-04-24T06:15:05;3.53;;;2.78;;
68140;SDS011;54941;52.220;104.306;2023-04-24T06:17:32;5.97;;;3.85;;
68140;SDS011;54941;52.220;104.306;2023-04-24T06:19:59;3.90;;;3.17;;
68140;SDS011;54941;52.220;104.306;2023-04-24T06:22:25;4.75;;;3.38;;
68140;SDS011;54941;52.220;104.306;2023-04-24T06:24:51;5.80;;;3.00;;
68140;SDS011;54941;52.220;104.306;2023-04-24T06:27:17;4.32;;;3.30;;
68140;SDS011;54941;52.220;104.306;2023-04-24T06:29:44;4.47;;;3.28;;
68140;SDS011;54941;52.220;104.306;2023-04-24T06:32:12;5.50;;;3.15;;
68140;SDS011;54941;52.220;104.306;2023-04-24T06:34:38;5.35;;;3.40;;
68140;SDS011;54941;52.220;104.306;2023-04-24T06:37:04;3.88;;;3.00;;
68140;SDS011;54941;52.220;104.306;2023-04-24T06:39:31;5.30;;;3.40;;
68140;SDS011;54941;52.220;104.306;2023-04-24T06:41:57;3.95;;;3.10;;
68140;SDS011;54941;52.220;104.306;2023-04-24T06:44:23;4.85;;;2.85;;
68140;SDS011;54941;52.220;104.306;2023-04-24T06:46:50;4.25;;;3.15;;
68140;SDS011;54941;52.220;104.306;2023-04-24T06:49:17;9.57;;;3.95;;
68140;SDS011;54941;52.220;104.306;2023-04-24T06:51:44;5.05;;;3.60;;
68140;SDS011;54941;52.220;104.306;2023-04-24T06:54:10;7.20;;;4.72;;
68140;SDS011;54941;52.220;104.306;2023-04-24T06:56:36;4.60;;;3.53;;
68140;SDS011;54941;52.220;104.306;2023-04-24T06:59:03;3.95;;;3.20;;
68140;SDS011;54941;52.220;104.306;2023-04-24T07:01:29;5.60;;;4.00;;
68140;SDS011;54941;52.220;104.306;2023-04-24T07:03:56;5.78;;;3.17;;
68140;SDS011;54941;52.220;104.306;2023-04-24T07:06:23;4.53;;;3.83;;
68140;SDS011;54941;52.220;104.306;2023-04-24T07:08:50;6.28;;;3.10;;
68140;SDS011;54941;52.220;104.306;2023-04-24T07:11:16;4.85;;;3.50;;
68140;SDS011;54941;52.220;104.306;2023-04-24T07:13:42;4.45;;;3.28;;
68140;SDS011;54941;52.220;104.306;2023-04-24T07:16:08;6.30;;;4.05;;
68140;SDS011;54941;52.220;104.306;2023-04-24T07:18:35;4.45;;;3.22;;
68140;SDS011;54941;52.220;104.306;2023-04-24T07:21:01;6.05;;;3.45;;
68140;SDS011;54941;52.220;104.306;2023-04-24T07:23:29;6.65;;;3.38;;
68140;SDS011;54941;52.220;104.306;2023-04-24T07:25:55;4.45;;;3.17;;
68140;SDS011;54941;52.220;104.306;2023-04-24T07:28:22;5.53;;;3.00;;
68140;SDS011;54941;52.220;104.306;2023-04-24T07:30:48;5.07;;;3.20;;
68140;SDS011;54941;52.220;104.306;2023-04-24T07:33:14;4.63;;;2.97;;
68140;SDS011;54941;52.220;104.306;2023-04-24T07:35:40;5.53;;;3.53;;
68140;SDS011;54941;52.220;104.306;2023-04-24T07:38:07;5.65;;;3.70;;
68140;SDS011;54941;52.220;104.306;2023-04-24T07:40:35;6.05;;;3.55;;
68140;SDS011;54941;52.220;104.306;2023-04-24T07:43:01;5.30;;;3.83;;
68140;SDS011;54941;52.220;104.306;2023-04-24T07:45:27;6.05;;;3.25;;
68140;SDS011;54941;52.220;104.306;2023-04-24T07:47:54;4.53;;;3.10;;
68140;SDS011;54941;52.220;104.306;2023-04-24T07:50:20;5.47;;;3.60;;
68140;SDS011;54941;52.220;104.306;2023-04-24T07:52:47;4.28;;;3.13;;
68140;SDS011;54941;52.220;104.306;2023-04-24T07:55:14;5.45;;;3.47;;
68140;SDS011;54941;52.220;104.306;2023-04-24T07:57:41;6.32;;;3.55;;
68140;SDS011;54941;52.220;104.306;2023-04-24T08:00:08;4.63;;;3.55;;
68140;SDS011;54941;52.220;104.306;2023-04-24T08:02:35;3.70;;;2.78;;
68140;SDS011;54941;52.220;104.306;2023-04-24T08:05:01;4.82;;;3.50;;
68140;SDS011;54941;52.220;104.306;2023-04-24T08:07:29;4.60;;;3.08;;
68140;SDS011;54941;52.220;104.306;2023-04-24T08:09:56;7.68;;;3.70;;
68140;SDS011;54941;52.220;104.306;2023-04-24T08:12:22;5.72;;;3.50;;
68140;SDS011;54941;52.220;104.306;2023-04-24T08:14:50;6.10;;;4.00;;
68140;SDS011;54941;52.220;104.306;2023-04-24T08:17:17;5.55;;;3.70;;
68140;SDS011;54941;52.220;104.306;2023-04-24T08:19:43;5.40;;;3.78;;
68140;SDS011;54941;52.220;104.306;2023-04-24T08:22:09;5.22;;;3.50;;
68140;SDS011;54941;52.220;104.306;2023-04-24T08:24:36;6.18;;;3.15;;
68140;SDS011;54941;52.220;104.306;2023-04-24T08:27:02;5.82;;;3.60;;
68140;SDS011;54941;52.220;104.306;2023-04-24T08:29:28;5.93;;;3.65;;
68140;SDS011;54941;52.220;104.306;2023-04-24T08:31:56;5.07;;;3.45;;
68140;SDS011;54941;52.220;104.306;2023-04-24T08:34:22;5.05;;;3.50;;
68140;SDS011;54941;52.220;104.306;2023-04-24T08:36:49;3.90;;;3.00;;
68140;SDS011;54941;52.220;104.306;2023-04-24T08:39:15;4.53;;;3.55;;
68140;SDS011;54941;52.220;104.306;2023-04-24T08:41:43;6.57;;;3.67;;
68140;SDS011;54941;52.220;104.306;2023-04-24T08:44:09;5.00;;;3.42;;
68140;SDS011;54941;52.220;104.306;2023-04-24T08:46:36;5.45;;;3.83;;
68140;SDS011;54941;52.220;104.306;2023-04-24T08:49:05;5.18;;;3.53;;
68140;SDS011;54941;52.220;104.306;2023-04-24T08:51:31;5.35;;;3.83;;
68140;SDS011;54941;52.220;104.306;2023-04-24T08:53:58;6.10;;;3.60;;
68140;SDS011;54941;52.220;104.306;2023-04-24T08:56:25;4.18;;;3.10;;
68140;SDS011;54941;52.220;104.306;2023-04-24T08:58:53;5.40;;;3.65;;
68140;SDS011;54941;52.220;104.306;2023-04-24T09:01:19;7.80;;;4.63;;
68140;SDS011;54941;52.220;104.306;2023-04-24T09:03:46;7.22;;;4.00;;
68140;SDS011;54941;52.220;104.306;2023-04-24T09:06:16;6.57;;;3.25;;
68140;SDS011;54941;52.220;104.306;2023-04-24T09:08:44;7.30;;;3.88;;
68140;SDS011;54941;52.220;104.306;2023-04-24T09:11:12;6.25;;;3.70;;
68140;SDS011;54941;52.220;104.306;2023-04-24T09:13:39;5.45;;;3.80;;
68140;SDS011;54941;52.220;104.306;2023-04-24T09:16:05;6.10;;;3.58;;
68140;SDS011;54941;52.220;104.306;2023-04-24T09:18:32;5.07;;;3.55;;
68140;SDS011;54941;52.220;104.306;2023-04-24T09:20:59;4.85;;;3.60;;
68140;SDS011;54941;52.220;104.306;2023-04-24T09:23:29;5.75;;;3.20;;
68140;SDS011;54941;52.220;104.306;2023-04-24T09:28:25;5.10;;;3.30;;
68140;SDS011;54941;52.220;104.306;2023-04-24T09:31:04;6.68;;;3.85;;
68140;SDS011;54941;52.220;104.306;2023-04-24T09:33:32;5.75;;;3.63;;
68140;SDS011;54941;52.220;104.306;2023-04-24T09:35:59;4.55;;;3.15;;
68140;SDS011;54941;52.220;104.306;2023-04-24T09:38:32;4.65;;;3.40;;
68140;SDS011;54941;52.220;104.306;2023-04-24T09:41:00;4.97;;;3.30;;
68140;SDS011;54941;52.220;104.306;2023-04-24T09:43:26;7.38;;;3.30;;
68140;SDS011;54941;52.220;104.306;2023-04-24T09:45:54;4.57;;;3.20;;
68140;SDS011;54941;52.220;104.306;2023-04-24T09:48:29;4.00;;;2.67;;
68140;SDS011;54941;52.220;104.306;2023-04-24T09:50:55;5.78;;;3.35;;
68140;SDS011;54941;52.220;104.306;2023-04-24T09:53:23;4.65;;;2.45;;
68140;SDS011;54941;52.220;104.306;2023-04-24T09:55:52;4.43;;;3.20;;
68140;SDS011;54941;52.220;104.306;2023-04-24T09:58:18;4.32;;;3.00;;
68140;SDS011;54941;52.220;104.306;2023-04-24T10:00:50;5.82;;;3.72;;
68140;SDS011;54941;52.220;104.306;2023-04-24T10:03:19;4.30;;;3.38;;
68140;SDS011;54941;52.220;104.306;2023-04-24T10:05:46;5.60;;;3.80;;
68140;SDS011;54941;52.220;104.306;2023-04-24T10:08:13;8.88;;;5.05;;
68140;SDS011;54941;52.220;104.306;2023-04-24T10:10:40;6.68;;;4.28;;
68140;SDS011;54941;52.220;104.306;2023-04-24T10:13:09;5.93;;;3.97;;
68140;SDS011;54941;52.220;104.306;2023-04-24T10:15:36;7.15;;;4.00;;
68140;SDS011;54941;52.220;104.306;2023-04-24T10:18:04;4.97;;;3.50;;
68140;SDS011;54941;52.220;104.306;2023-04-24T10:20:30;7.85;;;3.97;;
68140;SDS011;54941;52.220;104.306;2023-04-24T10:22:57;4.88;;;3.25;;
68140;SDS011;54941;52.220;104.306;2023-04-24T10:25:26;4.68;;;3.25;;
68140;SDS011;54941;52.220;104.306;2023-04-24T10:27:56;5.38;;;3.08;;
68140;SDS011;54941;52.220;104.306;2023-04-24T10:30:25;4.32;;;3.35;;
68140;SDS011;54941;52.220;104.306;2023-04-24T10:32:52;4.35;;;3.53;;
68140;SDS011;54941;52.220;104.306;2023-04-24T10:35:19;4.10;;;3.60;;
68140;SDS011;54941;52.220;104.306;2023-04-24T10:37:46;6.60;;;3.78;;
68140;SDS011;54941;52.220;104.306;2023-04-24T10:40:17;4.88;;;3.50;;
68140;SDS011;54941;52.220;104.306;2023-04-24T10:42:47;6.47;;;3.13;;
68140;SDS011;54941;52.220;104.306;2023-04-24T10:45:17;7.15;;;3.22;;
68140;SDS011;54941;52.220;104.306;2023-04-24T10:47:52;4.93;;;3.45;;
68140;SDS011;54941;52.220;104.306;2023-04-24T10:50:28;4.47;;;3.15;;
68140;SDS011;54941;52.220;104.306;2023-04-24T10:53:05;5.05;;;3.30;;
68140;SDS011;54941;52.220;104.306;2023-04-24T10:55:42;5.57;;;3.58;;
68140;SDS011;54941;52.220;104.306;2023-04-24T10:58:10;6.45;;;3.83;;
68140;SDS011;54941;52.220;104.306;2023-04-24T11:00:37;5.63;;;3.15;;
68140;SDS011;54941;52.220;104.306;2023-04-24T11:03:06;6.60;;;3.20;;
68140;SDS011;54941;52.220;104.306;2023-04-24T11:05:58;6.13;;;3.33;;
68140;SDS011;54941;52.220;104.306;2023-04-24T11:08:27;5.20;;;3.10;;
68140;SDS011;54941;52.220;104.306;2023-04-24T11:10:55;5.05;;;3.50;;
68140;SDS011;54941;52.220;104.306;2023-04-24T11:13:24;5.10;;;3.20;;
68140;SDS011;54941;52.220;104.306;2023-04-24T11:18:44;5.82;;;3.70;;
68140;SDS011;54941;52.220;104.306;2023-04-24T11:21:11;4.20;;;3.03;;
68140;SDS011;54941;52.220;104.306;2023-04-24T11:23:37;4.30;;;3.35;;
68140;SDS011;54941;52.220;104.306;2023-04-24T11:26:10;5.50;;;3.03;;
68140;SDS011;54941;52.220;104.306;2023-04-24T11:28:36;5.63;;;3.72;;
68140;SDS011;54941;52.220;104.306;2023-04-24T11:34:09;5.15;;;3.22;;
68140;SDS011;54941;52.220;104.306;2023-04-24T11:36:36;6.45;;;4.18;;
68140;SDS011;54941;52.220;104.306;2023-04-24T11:39:03;5.03;;;3.50;;
68140;SDS011;54941;52.220;104.306;2023-04-24T11:41:29;5.47;;;3.60;;
68140;SDS011;54941;52.220;104.306;2023-04-24T11:43:56;7.03;;;3.50;;
68140;SDS011;54941;52.220;104.306;2023-04-24T11:46:23;4.82;;;3.03;;
68140;SDS011;54941;52.220;104.306;2023-04-24T11:48:53;6.40;;;3.42;;
68140;SDS011;54941;52.220;104.306;2023-04-24T11:51:21;5.70;;;4.00;;
68140;SDS011;54941;52.220;104.306;2023-04-24T11:53:50;9.60;;;3.30;;
68140;SDS011;54941;52.220;104.306;2023-04-24T11:56:17;7.78;;;4.53;;
68140;SDS011;54941;52.220;104.306;2023-04-24T11:58:44;6.13;;;3.88;;
68140;SDS011;54941;52.220;104.306;2023-04-24T12:01:10;6.60;;;4.20;;
68140;SDS011;54941;52.220;104.306;2023-04-24T12:03:37;6.35;;;4.13;;
68140;SDS011;54941;52.220;104.306;2023-04-24T12:06:06;6.25;;;3.65;;
68140;SDS011;54941;52.220;104.306;2023-04-24T12:08:34;7.40;;;4.18;;
68140;SDS011;54941;52.220;104.306;2023-04-24T12:11:01;6.88;;;4.00;;
68140;SDS011;54941;52.220;104.306;2023-04-24T12:13:28;7.32;;;4.38;;
68140;SDS011;54941;52.220;104.306;2023-04-24T12:15:56;7.03;;;4.20;;
68140;SDS011;54941;52.220;104.306;2023-04-24T12:18:22;6.95;;;4.10;;
68140;SDS011;54941;52.220;104.306;2023-04-24T12:20:49;7.28;;;3.83;;
68140;SDS011;54941;52.220;104.306;2023-04-24T12:23:16;6.25;;;4.20;;
68140;SDS011;54941;52.220;104.306;2023-04-24T12:26:03;8.77;;;4.97;;
68140;SDS011;54941;52.220;104.306;2023-04-24T12:28:34;10.73;;;4.82;;
68140;SDS011;54941;52.220;104.306;2023-04-24T12:31:01;7.55;;;4.35;;
68140;SDS011;54941;52.220;104.306;2023-04-24T12:33:27;7.95;;;3.25;;
68140;SDS011;54941;52.220;104.306;2023-04-24T12:35:57;6.65;;;4.20;;
68140;SDS011;54941;52.220;104.306;2023-04-24T12:38:25;5.72;;;3.33;;
68140;SDS011;54941;52.220;104.306;2023-04-24T12:41:02;4.82;;;3.47;;
68140;SDS011;54941;52.220;104.306;2023-04-24T12:43:29;6.75;;;3.92;;
68140;SDS011;54941;52.220;104.306;2023-04-24T12:45:56;5.90;;;3.92;;
68140;SDS011;54941;52.220;104.306;2023-04-24T12:48:22;7.05;;;3.42;;
68140;SDS011;54941;52.220;104.306;2023-04-24T12:50:49;7.18;;;3.97;;
68140;SDS011;54941;52.220;104.306;2023-04-24T12:53:15;6.32;;;3.92;;
68140;SDS011;54941;52.220;104.306;2023-04-24T12:55:42;6.03;;;3.47;;
68140;SDS011;54941;52.220;104.306;2023-04-24T12:58:10;5.90;;;3.65;;
68140;SDS011;54941;52.220;104.306;2023-04-24T13:00:36;6.35;;;3.67;;
68140;SDS011;54941;52.220;104.306;2023-04-24T13:03:04;6.00;;;3.13;;
68140;SDS011;54941;52.220;104.306;2023-04-24T13:05:31;5.38;;;3.17;;
68140;SDS011;54941;52.220;104.306;2023-04-24T13:07:57;4.60;;;2.92;;
68140;SDS011;54941;52.220;104.306;2023-04-24T13:10:24;5.57;;;3.10;;
68140;SDS011;54941;52.220;104.306;2023-04-24T13:12:53;6.28;;;3.83;;
68140;SDS011;54941;52.220;104.306;2023-04-24T13:17:47;8.90;;;3.72;;
68140;SDS011;54941;52.220;104.306;2023-04-24T13:20:13;7.30;;;4.15;;
68140;SDS011;54941;52.220;104.306;2023-04-24T13:22:39;4.32;;;3.10;;
68140;SDS011;54941;52.220;104.306;2023-04-24T13:25:06;4.43;;;3.30;;
68140;SDS011;54941;52.220;104.306;2023-04-24T13:27:33;5.22;;;3.58;;
68140;SDS011;54941;52.220;104.306;2023-04-24T13:29:59;7.68;;;3.78;;
68140;SDS011;54941;52.220;104.306;2023-04-24T13:32:27;5.13;;;3.10;;
68140;SDS011;54941;52.220;104.306;2023-04-24T13:34:54;5.13;;;3.22;;
68140;SDS011;54941;52.220;104.306;2023-04-24T13:37:20;5.32;;;3.53;;
68140;SDS011;54941;52.220;104.306;2023-04-24T13:39:46;6.13;;;3.58;;
68140;SDS011;54941;52.220;104.306;2023-04-24T13:42:12;5.22;;;3.45;;
68140;SDS011;54941;52.220;104.306;2023-04-24T13:44:39;5.03;;;3.40;;
68140;SDS011;54941;52.220;104.306;2023-04-24T13:47:06;5.10;;;3.25;;
68140;SDS011;54941;52.220;104.306;2023-04-24T13:49:33;4.45;;;3.20;;
68140;SDS011;54941;52.220;104.306;2023-04-24T13:52:00;3.88;;;2.75;;
68140;SDS011;54941;52.220;104.306;2023-04-24T13:54:27;6.03;;;3.17;;
68140;SDS011;54941;52.220;104.306;2023-04-24T13:56:55;4.10;;;2.58;;
68140;SDS011;54941;52.220;104.306;2023-04-24T14:01:49;5.70;;;2.80;;
68140;SDS011;54941;52.220;104.306;2023-04-24T14:04:15;5.28;;;2.67;;
68140;SDS011;54941;52.220;104.306;2023-04-24T14:06:43;4.63;;;3.15;;
68140;SDS011;54941;52.220;104.306;2023-04-24T14:09:10;4.10;;;3.10;;
68140;SDS011;54941;52.220;104.306;2023-04-24T14:11:36;4.45;;;2.90;;
68140;SDS011;54941;52.220;104.306;2023-04-24T14:14:02;4.88;;;3.35;;
68140;SDS011;54941;52.220;104.306;2023-04-24T14:16:32;6.53;;;2.95;;
68140;SDS011;54941;52.220;104.306;2023-04-24T14:18:58;5.28;;;3.13;;
68140;SDS011;54941;52.220;104.306;2023-04-24T14:21:24;5.88;;;2.78;;
68140;SDS011;54941;52.220;104.306;2023-04-24T14:23:52;4.55;;;3.05;;
68140;SDS011;54941;52.220;104.306;2023-04-24T14:26:19;6.30;;;3.17;;
68140;SDS011;54941;52.220;104.306;2023-04-24T14:28:45;4.35;;;2.88;;
68140;SDS011;54941;52.220;104.306;2023-04-24T14:31:12;5.82;;;3.30;;
68140;SDS011;54941;52.220;104.306;2023-04-24T14:33:38;6.88;;;3.50;;